Clearwater, FL

1:42 PM EDT on August 20, 2014 (GMT -0400)
MacDill Air Force Base | Change Station
CLOSE
Current Station
Airport
Location: Tampa Macdill AFB,
Elevation: 13 ft
Nearby Weather Stations

Elev 13 ft 27.85 °N, 82.52 °W | Updated 44 minutes ago

Clear
Clear
93 °F
Feels Like 109 °F
N
5
Wind Variable Wind from Variable

Today
High -- | Low -- °F
--% Chance of Precip.
Yesterday
High -- | Low -- °F
Precip. -- in
7:03 AM 8:04 PM
Waning Crescent, 20% visible
Pressure 30.11 in
Visibility 10.0 miles
Clouds Clear
Heat Index 109 °F
Dew Point 78 °F
Humidity 61%
Rainfall 0.00 in
Snow Depth Not available.
UV 15 out of 12
Pollen 4.20 out of 12
Air Quality Not available.
Flu Activity Not available.
METAR KMCF 201658Z AUTO VRB04KT 10SM CLR 34/26 A3010 RMK AO2 SLP196 T03410256

More Conditions Fewer Conditions

Pressure 30.11 in
Visibility 10.0 miles
Clouds Clear
Heat Index 109 °F
Dew Point 78 °F
Humidity 61%
Rainfall 0.00 in
Snow Depth Not available.
UV 15 out of 12
Pollen 4.20 out of 12
Air Quality Not available.
Flu Activity Not available.
METAR KMCF 201658Z AUTO VRB04KT 10SM CLR 34/26 A3010 RMK AO2 SLP196 T03410256

More Conditions Fewer Conditions

10-Day Weather Forecast

Almanac

Astronomy

Aug. 20, 2014 Rise Set
Actual Time 7:03 AM EDT 8:04 PM EDT
Civil Twilight 6:39 AM EDT 8:28 PM EDT
Nautical Twilight 6:10 AM EDT 8:57 PM EDT
Astronomical Twilight 5:41 AM EDT 9:27 PM EDT
Moon 2:51 AM EDT 4:40 PM EDT
Length of Visible Light 13h 49m
Length of Day
13h 00m
Tomorrow will be 1m 31s shorter.
Waning Crescent, 20% of the Moon is Illuminated
Today
Waning Crescent
Aug 25
New
Sep 2
First Quarter
Sep 8
Full
Sep 15
Last Quarter

Community

WunderPhotos

Upload Photos

1,745,699 photos uploaded!

WunderBlogs® & News

By Dr. Jeff Masters
Director of Meteorology, Weather Underground
By Kari Strenfel
Meteorologist, Weather Underground
By Christopher C. Burt
Weather Historian, Weather Underground
August 20, 2014
August 20, 2014
August 20, 2014

Nearby

Air Quality

  Air Quality AQ Index Pollutant
Wednesday Moderate
PM2.5
Wednesday Good
OZONE
Thursday Good
PM2.5
Thursday Good
OZONE

Snow Depth

Station Depth Elevation
No new snow has been reported.

Earthquake Activity

City Distance Mag. Time & Date
No recent earthquake activity has been reported nearby.
Minimum magnitude displayed is 2.5.

Coastal Water Temperatures

Place Temperature
Clearwater Beach, FL 89.1 °F
Port Manatee, FL 90.0 °F
St Petersburg, FL 89.1 °F
Old Port Tampa, FL 87.1 °F
McKay Bay Entrance, FL 88.0 °F

Nearby Weather Stations